Time;durP1;ratioP1;P1;durP2;ratioP2;P2;SDS_P1;SDS_P2;PMS_P1;PMS_P2;Temp;Humidity;BMP_temperature;BMP_pressure;BME280_temperature;BME280_humidity;BME280_pressure;Samples;Min_cycle;Max_cycle;Signal;HPM_P1;HPM_P2
2021/08/21 00:01:37;;;;;;;5.95;2.63;;;;;;;21.58;54.66;101147.59;5034395;28;20133;-70
2021/08/21 00:04:07;;;;;;;6.43;2.78;;;;;;;21.62;54.38;101145.66;5032412;28;20049;-69
2021/08/21 00:06:35;;;;;;;7.93;3.47;;;;;;;21.42;55.26;101144.13;5033438;28;20050;-70
2021/08/21 00:09:02;;;;;;;6.85;3.13;;;;;;;21.46;55.19;101147.81;5032624;28;20046;-70
2021/08/21 00:11:29;;;;;;;7.50;3.22;;;;;;;21.51;55.20;101138.25;5032619;28;20053;-69
2021/08/21 00:13:56;;;;;;;6.78;2.70;;;;;;;21.40;55.55;101148.50;5047926;28;20040;-71
2021/08/21 00:16:24;;;;;;;6.57;2.80;;;;;;;21.30;55.78;101141.53;5035917;28;20037;-70
2021/08/21 00:18:51;;;;;;;6.22;3.00;;;;;;;21.27;56.12;101136.66;5053591;28;20052;-70
2021/08/21 00:21:18;;;;;;;6.65;2.65;;;;;;;21.12;56.26;101137.63;5052351;28;20056;-70
2021/08/21 00:23:46;;;;;;;5.75;2.50;;;;;;;20.73;57.38;101136.09;5053838;28;20045;-71
2021/08/21 00:26:13;;;;;;;5.95;2.85;;;;;;;20.70;57.36;101134.84;5051730;28;20053;-62
2021/08/21 00:28:40;;;;;;;5.70;2.60;;;;;;;20.54;58.66;101133.34;5053420;28;20060;-70
2021/08/21 00:31:08;;;;;;;6.93;2.80;;;;;;;20.89;57.08;101123.59;5053345;28;20049;-63
2021/08/21 00:33:35;;;;;;;5.03;2.85;;;;;;;20.97;56.98;101121.72;5054138;28;20045;-62
2021/08/21 00:36:03;;;;;;;7.80;2.63;;;;;;;20.87;57.36;101128.75;5055980;28;20045;-63
2021/08/21 00:38:30;;;;;;;6.93;2.78;;;;;;;20.74;57.29;101124.53;5039961;28;20049;-62
2021/08/21 00:40:58;;;;;;;4.65;2.40;;;;;;;20.82;57.09;101117.88;5056125;28;20053;-71
2021/08/21 00:43:27;;;;;;;8.38;2.90;;;;;;;20.83;57.34;101110.28;5023521;28;20055;-70
2021/08/21 00:45:54;;;;;;;7.82;2.72;;;;;;;20.85;57.28;101110.72;5057315;28;20147;-70
2021/08/21 00:48:22;;;;;;;5.55;2.30;;;;;;;20.84;57.15;101111.88;5056071;28;20056;-63
2021/08/21 00:50:49;;;;;;;5.68;2.53;;;;;;;20.98;56.87;101112.97;5039509;28;20048;-70
2021/08/21 00:53:17;;;;;;;6.15;2.50;;;;;;;21.00;56.71;101115.41;5056061;28;20048;-70
2021/08/21 00:55:47;;;;;;;5.32;2.50;;;;;;;21.10;56.13;101121.19;5056016;28;20049;-70
2021/08/21 00:58:14;;;;;;;6.95;2.90;;;;;;;21.10;56.38;101118.38;5055876;28;20061;-70
2021/08/21 01:00:42;;;;;;;7.22;2.90;;;;;;;20.99;56.79;101116.59;5056038;28;20045;-72
2021/08/21 01:03:10;;;;;;;6.47;2.80;;;;;;;20.66;57.38;101119.97;5056552;28;20044;-71
2021/08/21 01:05:37;;;;;;;3.88;2.13;;;;;;;20.74;57.71;101118.09;5039122;28;20053;-71
2021/08/21 01:08:05;;;;;;;4.97;2.65;;;;;;;20.59;58.06;101105.81;5056958;28;20052;-63
2021/08/21 01:10:43;;;;;;;5.47;2.95;;;;;;;20.65;57.97;101097.94;5055654;28;20056;-62
2021/08/21 01:13:11;;;;;;;7.10;2.90;;;;;;;20.53;57.88;101107.31;5030270;28;20054;-63
2021/08/21 01:15:38;;;;;;;6.82;2.85;;;;;;;20.57;58.30;101097.00;5036109;28;20061;-63
2021/08/21 01:18:11;;;;;;;5.63;2.80;;;;;;;20.67;57.81;101107.59;5035464;28;20054;-63
2021/08/21 01:20:39;;;;;;;6.38;2.67;;;;;;;20.56;58.15;101106.56;5035746;28;20056;-71
2021/08/21 01:23:08;;;;;;;6.18;2.70;;;;;;;20.61;58.02;101102.66;5019733;28;20057;-63
2021/08/21 01:25:54;;;;;;;9.38;2.75;;;;;;;20.44;58.73;101108.72;5037181;28;20057;-63
2021/08/21 01:28:24;;;;;;;11.05;2.92;;;;;;;20.35;59.00;101111.75;5035075;28;20501;-63
2021/08/21 01:31:11;;;;;;;7.40;2.70;;;;;;;20.46;58.74;101096.00;5032347;28;20093;-63
2021/08/21 01:33:42;;;;;;;10.55;2.53;;;;;;;20.28;59.09;101092.03;5019454;28;20072;-63
2021/08/21 01:36:10;;;;;;;4.68;2.65;;;;;;;20.48;58.76;101085.25;5036333;28;20060;-71
2021/08/21 01:38:56;;;;;;;5.70;2.80;;;;;;;20.29;59.48;101099.25;5020613;28;20049;-71
2021/08/21 01:41:46;;;;;;;8.75;2.83;;;;;;;20.30;59.30;101105.66;5032564;28;20529;-70
2021/08/21 01:44:17;;;;;;;;;;;;;;;20.22;nan;101096.31;5034439;28;20041;-70
2021/08/21 01:46:50;;;;;;;5.85;2.65;;;;;;;20.30;59.37;101092.47;5034895;28;19921;-71
2021/08/21 01:49:19;;;;;;;8.88;2.60;;;;;;;20.21;59.55;101089.09;5019571;28;20060;-71
2021/08/21 01:51:50;;;;;;;5.78;2.55;;;;;;;20.04;60.11;101097.91;5035064;28;20049;-71
2021/08/21 01:54:25;;;;;;;5.13;2.88;;;;;;;20.01;60.13;101091.03;5035145;28;20046;-70
2021/08/21 01:56:56;;;;;;;8.00;3.00;;;;;;;20.33;59.24;101083.34;5034179;28;20057;-69
2021/08/21 01:59:45;;;;;;;12.00;2.92;;;;;;;20.11;59.64;101093.28;5035254;28;20052;-70
2021/08/21 02:02:19;;;;;;;6.97;3.20;;;;;;;20.13;59.55;101101.28;5035319;28;20057;-71
2021/08/21 02:05:13;;;;;;;6.93;2.90;;;;;;;20.16;59.54;101086.59;5033079;28;20068;-63
2021/08/21 02:07:40;;;;;;;7.47;2.83;;;;;;;19.96;59.95;101085.75;5034409;28;20496;-63
2021/08/21 02:10:08;;;;;;;10.98;3.33;;;;;;;19.88;60.42;101080.38;5034696;28;20491;-63
2021/08/21 02:12:35;;;;;;;10.48;2.88;;;;;;;19.72;61.20;101076.81;5020892;28;20057;-63
2021/08/21 02:15:08;;;;;;;5.68;2.92;;;;;;;20.02;60.00;101075.91;5038070;28;20072;-63
2021/08/21 02:17:36;;;;;;;9.35;2.70;;;;;;;20.28;58.98;101064.06;5053957;28;20527;-63
2021/08/21 02:20:23;;;;;;;8.32;2.80;;;;;;;20.24;59.04;101070.78;5055747;28;20041;-63
2021/08/21 02:22:51;;;;;;;7.78;2.90;;;;;;;20.20;59.11;101069.88;5038213;28;20059;-62
2021/08/21 02:25:18;;;;;;;7.38;2.80;;;;;;;20.30;59.02;101072.88;5054169;28;20067;-63
2021/08/21 02:27:57;;;;;;;5.07;2.80;;;;;;;20.24;58.67;101077.19;5053029;28;20059;-62
2021/08/21 02:30:24;;;;;;;10.10;2.83;;;;;;;20.22;58.88;101084.31;5053958;28;20075;-64
2021/08/21 02:32:52;;;;;;;6.45;3.00;;;;;;;20.25;58.88;101078.78;5055266;28;20053;-63
2021/08/21 02:35:19;;;;;;;8.07;2.78;;;;;;;20.28;59.09;101068.84;5053630;28;20064;-63
2021/08/21 02:37:47;;;;;;;6.47;3.10;;;;;;;20.38;58.66;101071.84;5037109;28;20056;-62
2021/08/21 02:40:14;;;;;;;5.90;2.65;;;;;;;20.44;58.29;101064.78;5055415;28;20049;-62
2021/08/21 02:42:42;;;;;;;5.22;2.50;;;;;;;20.30;58.54;101069.28;5053786;28;20057;-64
2021/08/21 02:45:10;;;;;;;5.00;2.45;;;;;;;20.42;58.37;101071.91;5055274;28;20049;-63
2021/08/21 02:47:37;;;;;;;6.55;2.95;;;;;;;20.33;58.37;101063.75;5055051;28;20049;-63
2021/08/21 02:50:05;;;;;;;8.75;2.80;;;;;;;20.21;59.04;101060.31;5037010;28;20053;-62
2021/08/21 02:52:32;;;;;;;6.63;3.03;;;;;;;20.17;59.23;101065.03;5053611;28;20068;-63
2021/08/21 02:55:00;;;;;;;7.70;2.85;;;;;;;20.30;59.23;101064.50;5053596;28;20041;-71
2021/08/21 02:57:29;;;;;;;6.53;3.05;;;;;;;20.28;58.94;101063.25;5052638;28;20068;-62
2021/08/21 02:59:56;;;;;;;7.53;3.10;;;;;;;20.15;59.51;101068.97;5053524;28;20044;-62
2021/08/21 03:02:33;;;;;;;6.75;2.80;;;;;;;20.28;59.25;101060.44;5053832;28;20053;-62
2021/08/21 03:05:01;;;;;;;7.00;2.67;;;;;;;20.19;59.84;101057.88;5053567;28;20033;-62
2021/08/21 03:07:30;;;;;;;5.57;2.80;;;;;;;19.99;59.95;101065.47;5036318;28;20068;-63
2021/08/21 03:10:03;;;;;;;5.82;3.20;;;;;;;19.94;60.58;101064.94;5053598;28;20496;-70
2021/08/21 03:12:44;;;;;;;10.30;3.38;;;;;;;19.96;60.61;101057.78;5049165;28;20171;-70
2021/08/21 03:15:12;;;;;;;7.20;3.22;;;;;;;20.11;59.76;101058.91;5017248;28;20053;-64
2021/08/21 03:17:39;;;;;;;6.80;3.05;;;;;;;19.84;60.98;101057.94;5017089;28;20057;-63
2021/08/21 03:20:07;;;;;;;6.93;3.05;;;;;;;20.06;60.52;101062.00;5033277;28;20500;-63
2021/08/21 03:22:37;;;;;;;9.18;3.25;;;;;;;20.23;59.91;101055.16;5017391;28;20049;-63
2021/08/21 03:25:08;;;;;;;5.05;3.10;;;;;;;20.03;59.93;101049.53;5033318;28;20056;-70
2021/08/21 03:27:35;;;;;;;9.43;3.65;;;;;;;20.04;60.40;101051.19;5033141;28;20054;-70
2021/08/21 03:30:04;;;;;;;8.65;3.53;;;;;;;20.29;59.74;101050.88;5034935;28;20399;-62
2021/08/21 03:32:34;;;;;;;6.35;3.67;;;;;;;20.03;60.33;101051.56;5016978;28;20057;-62
2021/08/21 03:35:01;;;;;;;7.72;3.92;;;;;;;20.07;60.06;101050.44;5017099;28;20084;-71
2021/08/21 03:37:29;;;;;;;8.48;3.78;;;;;;;19.79;60.67;101049.03;5034627;28;20053;-71
2021/08/21 03:39:57;;;;;;;5.88;3.63;;;;;;;19.70;61.28;101049.25;5033352;28;20046;-63
2021/08/21 03:42:24;;;;;;;9.30;3.60;;;;;;;19.74;61.27;101052.13;5032893;28;20495;-62
2021/08/21 03:44:59;;;;;;;7.63;4.13;;;;;;;19.61;61.98;101047.84;5017509;28;20050;-62
2021/08/21 03:47:27;;;;;;;10.88;4.13;;;;;;;19.76;61.36;101045.00;5032948;28;20060;-71
2021/08/21 03:49:54;;;;;;;9.73;3.88;;;;;;;19.66;61.54;101042.78;5032964;28;20084;-63
2021/08/21 03:52:21;;;;;;;7.75;3.72;;;;;;;19.59;62.00;101037.03;5034311;28;20065;-63
2021/08/21 03:54:49;;;;;;;9.73;4.20;;;;;;;19.65;61.97;101043.16;5034049;28;20054;-63
2021/08/21 03:57:17;;;;;;;7.88;4.53;;;;;;;19.61;61.96;101045.06;5032450;28;20061;-63
2021/08/21 03:59:45;;;;;;;8.13;4.10;;;;;;;19.51;62.29;101037.25;5032552;28;20447;-70
2021/08/21 04:02:13;;;;;;;9.70;4.60;;;;;;;19.29;63.30;101035.09;5032895;28;20049;-71
2021/08/21 04:04:45;;;;;;;11.40;4.20;;;;;;;19.48;62.57;101037.97;5032890;28;20053;-71
2021/08/21 04:07:16;;;;;;;8.65;4.55;;;;;;;19.45;62.63;101033.94;5032095;28;20068;-70
2021/08/21 04:09:44;;;;;;;7.53;4.32;;;;;;;19.42;62.38;101036.66;5000032;28;20076;-70
2021/08/21 04:12:16;;;;;;;9.73;4.70;;;;;;;19.18;63.68;101028.50;5032795;28;20056;-71
2021/08/21 04:14:53;;;;;;;12.43;4.85;;;;;;;19.22;63.74;101024.59;5029498;28;20097;-71
2021/08/21 04:17:21;;;;;;;9.50;4.95;;;;;;;19.49;62.93;101020.84;5013059;28;20050;-71
2021/08/21 04:19:50;;;;;;;9.85;4.90;;;;;;;19.15;63.57;101018.84;5012600;28;20049;-61
2021/08/21 04:22:18;;;;;;;7.82;4.68;;;;;;;19.19;63.80;101024.50;5029121;28;20057;-63
2021/08/21 04:24:47;;;;;;;7.32;4.80;;;;;;;19.06;64.13;101021.84;5012642;28;20156;-63
2021/08/21 04:27:15;;;;;;;7.82;5.10;;;;;;;19.03;64.23;101021.75;5028780;28;20058;-63
2021/08/21 04:29:43;;;;;;;10.38;5.35;;;;;;;19.12;63.97;101019.56;5029007;28;20050;-63
2021/08/21 04:32:13;;;;;;;10.10;4.95;;;;;;;19.07;64.36;101014.28;5013394;28;20076;-63
2021/08/21 04:34:41;;;;;;;8.43;5.03;;;;;;;19.28;63.32;101020.34;5012291;28;20046;-63
2021/08/21 04:37:13;;;;;;;9.07;4.95;;;;;;;19.29;63.26;101015.56;5028885;28;20054;-64
2021/08/21 04:39:42;;;;;;;11.37;5.10;;;;;;;19.35;63.17;101012.16;5012890;28;20053;-71
2021/08/21 04:42:14;;;;;;;8.48;4.68;;;;;;;19.33;63.38;101022.91;5029313;28;20054;-64
2021/08/21 04:44:42;;;;;;;8.43;5.07;;;;;;;19.21;64.03;101025.78;4995708;28;20046;-62
2021/08/21 04:47:11;;;;;;;7.93;4.38;;;;;;;19.04;64.62;101024.16;5028945;28;20056;-62
2021/08/21 04:49:40;;;;;;;7.35;4.80;;;;;;;19.22;63.96;101032.16;4996124;28;20076;-63
2021/08/21 04:52:07;;;;;;;8.93;4.55;;;;;;;18.99;64.67;101029.22;5012098;28;20061;-64
2021/08/21 04:54:37;;;;;;;8.57;4.82;;;;;;;18.83;65.62;101031.22;5029460;28;20161;-71
2021/08/21 04:57:05;;;;;;;9.18;4.65;;;;;;;18.80;65.71;101029.97;5012489;28;20058;-71
2021/08/21 04:59:58;;;;;;;7.95;4.55;;;;;;;18.86;65.36;101031.28;5013012;28;20463;-72
2021/08/21 05:02:26;;;;;;;10.15;4.65;;;;;;;19.06;65.17;101032.19;5029026;28;20042;-71
2021/08/21 05:04:54;;;;;;;8.15;5.10;;;;;;;18.83;65.53;101029.25;4996605;28;20050;-63
2021/08/21 05:07:21;;;;;;;12.25;5.03;;;;;;;18.70;65.99;101033.31;4996381;28;20065;-71
2021/08/21 05:09:49;;;;;;;8.38;4.65;;;;;;;18.88;65.79;101034.53;5014070;28;20054;-71
2021/08/21 05:12:21;;;;;;;10.68;4.60;;;;;;;18.84;65.74;101039.25;5014978;28;20053;-71
2021/08/21 05:14:58;;;;;;;11.70;5.40;;;;;;;18.87;65.74;101041.31;5052152;28;20048;-71
2021/08/21 05:17:25;;;;;;;7.93;4.68;;;;;;;18.84;66.07;101038.44;5052139;28;20055;-64
2021/08/21 05:20:26;;;;;;;10.63;5.15;;;;;;;19.04;65.25;101031.72;5056202;28;20049;-71
2021/08/21 05:23:06;;;;;;;9.00;4.55;;;;;;;18.96;65.31;101029.94;5040474;28;20511;-71
2021/08/21 05:25:48;;;;;;;8.63;4.53;;;;;;;19.04;65.15;101034.53;5040325;28;20052;-63
2021/08/21 05:28:16;;;;;;;9.18;5.20;;;;;;;19.17;64.79;101033.25;5038091;28;20064;-62
2021/08/21 05:30:46;;;;;;;9.32;4.57;;;;;;;19.15;65.07;101041.19;5055418;28;20045;-63
2021/08/21 05:33:16;;;;;;;9.75;4.88;;;;;;;19.09;64.88;101042.63;5022632;28;20056;-63
2021/08/21 05:35:46;;;;;;;9.82;4.43;;;;;;;19.13;65.03;101042.69;5055127;28;20053;-63
2021/08/21 05:38:15;;;;;;;8.07;4.60;;;;;;;19.22;64.93;101046.94;5039268;28;20053;-63
2021/08/21 05:40:43;;;;;;;7.57;4.05;;;;;;;19.28;64.24;101051.09;5055540;28;20053;-63
2021/08/21 05:43:11;;;;;;;9.95;4.68;;;;;;;19.10;65.25;101049.84;5054664;28;20053;-63
2021/08/21 05:45:39;;;;;;;7.53;4.63;;;;;;;19.29;64.74;101049.88;5055429;28;20056;-63
2021/08/21 05:48:06;;;;;;;11.32;4.82;;;;;;;19.37;64.56;101042.53;5021771;28;20064;-63
2021/08/21 05:50:34;;;;;;;9.38;4.40;;;;;;;19.42;63.81;101045.03;5056529;28;20045;-70
2021/08/21 05:53:01;;;;;;;8.77;4.25;;;;;;;19.38;64.43;101050.53;5054808;28;20057;-71
2021/08/21 05:55:29;;;;;;;8.55;4.90;;;;;;;19.32;64.42;101051.19;5038253;28;20044;-71
2021/08/21 05:58:01;;;;;;;8.18;5.05;;;;;;;19.35;64.64;101053.25;5038995;28;20056;-71
2021/08/21 06:00:30;;;;;;;7.38;4.20;;;;;;;19.56;63.95;101054.53;5056811;28;20045;-71
2021/08/21 06:02:58;;;;;;;9.98;4.82;;;;;;;19.51;64.12;101054.81;5056919;28;20071;-64
2021/08/21 06:05:25;;;;;;;9.90;4.80;;;;;;;19.41;64.17;101049.81;5056126;28;20045;-63
2021/08/21 06:07:58;;;;;;;7.15;4.47;;;;;;;19.49;64.60;101056.38;5022229;28;20492;-62
2021/08/21 06:10:29;;;;;;;7.18;4.45;;;;;;;19.44;64.56;101049.06;5054574;28;20132;-63
2021/08/21 06:12:57;;;;;;;9.98;5.43;;;;;;;19.48;64.02;101047.16;5049571;28;20080;-63
2021/08/21 06:15:24;;;;;;;9.95;4.90;;;;;;;19.47;64.31;101051.16;5034296;28;20069;-63
2021/08/21 06:17:52;;;;;;;8.02;4.78;;;;;;;19.37;64.72;101053.69;5018352;28;20053;-62
2021/08/21 06:20:23;;;;;;;11.93;5.18;;;;;;;19.47;64.36;101053.94;5035867;28;20051;-63
2021/08/21 06:22:50;;;;;;;9.00;4.43;;;;;;;19.53;63.89;101057.25;5035958;28;20159;-62
2021/08/21 06:25:18;;;;;;;7.80;4.70;;;;;;;19.58;64.10;101048.59;5035958;28;20393;-63
2021/08/21 06:27:45;;;;;;;11.27;5.07;;;;;;;19.54;64.26;101051.31;5034542;28;20049;-71
2021/08/21 06:30:13;;;;;;;8.02;4.80;;;;;;;19.64;63.50;101050.72;5035510;28;20052;-63
2021/08/21 06:32:41;;;;;;;8.93;4.93;;;;;;;19.50;64.00;101046.81;5034348;28;20058;-63
2021/08/21 06:35:08;;;;;;;8.10;4.80;;;;;;;19.02;65.74;101048.84;5017880;28;20053;-63
2021/08/21 06:37:36;;;;;;;9.07;4.90;;;;;;;19.18;65.74;101040.44;5035669;28;20055;-63
2021/08/21 06:40:04;;;;;;;6.57;4.30;;;;;;;19.34;65.13;101038.47;5034128;28;20053;-63
2021/08/21 06:42:31;;;;;;;10.32;4.97;;;;;;;19.45;65.35;101039.53;5035543;28;20060;-63
2021/08/21 06:45:37;;;;;;;11.38;4.70;;;;;;;19.62;64.47;101046.66;5034842;28;20053;-71
2021/08/21 06:48:05;;;;;;;9.85;5.05;;;;;;;19.73;64.17;101042.94;5035506;28;20064;-65
2021/08/21 06:50:33;;;;;;;9.48;4.70;;;;;;;19.70;63.96;101029.69;5035148;28;20049;-64
2021/08/21 06:53:02;;;;;;;9.30;4.07;;;;;;;19.69;64.39;101035.63;5017860;28;20049;-64
2021/08/21 06:55:30;;;;;;;10.40;4.40;;;;;;;19.58;64.71;101029.03;5035391;28;20061;-70
2021/08/21 06:58:06;;;;;;;10.85;4.53;;;;;;;19.89;63.89;101028.88;5034891;28;20049;-70
2021/08/21 07:00:35;;;;;;;8.07;4.28;;;;;;;19.95;63.37;101025.44;5034076;28;20049;-70
2021/08/21 07:03:02;;;;;;;13.98;4.35;;;;;;;20.13;63.15;101031.38;5035251;28;20045;-71
2021/08/21 07:05:30;;;;;;;8.57;4.00;;;;;;;19.97;63.29;101030.63;5035164;28;20075;-70
2021/08/21 07:07:57;;;;;;;6.45;3.88;;;;;;;20.21;63.35;101029.56;5035704;28;20053;-70
2021/08/21 07:10:24;;;;;;;10.30;4.13;;;;;;;20.37;62.29;101038.63;5034919;28;20053;-71
2021/08/21 07:12:51;;;;;;;7.60;4.47;;;;;;;20.41;62.25;101045.94;5040154;28;20127;-72
2021/08/21 07:15:19;;;;;;;11.25;4.45;;;;;;;20.30;62.44;101039.31;5054714;28;20049;-70
2021/08/21 07:17:46;;;;;;;7.10;4.38;;;;;;;20.26;62.53;101038.44;5055526;28;20049;-70
2021/08/21 07:20:13;;;;;;;9.60;4.20;;;;;;;20.08;62.90;101037.28;5054170;28;20053;-71
2021/08/21 07:22:41;;;;;;;8.15;3.85;;;;;;;20.27;62.50;101040.06;5055410;28;20048;-70
2021/08/21 07:25:08;;;;;;;8.85;3.83;;;;;;;20.37;62.18;101042.25;5055063;28;20049;-71
2021/08/21 07:27:35;;;;;;;6.90;4.00;;;;;;;20.49;61.88;101044.06;5055128;28;20052;-70
2021/08/21 07:30:05;;;;;;;7.63;3.85;;;;;;;20.61;61.29;101053.09;5054910;28;20408;-70
2021/08/21 07:32:33;;;;;;;7.43;4.57;;;;;;;20.52;61.37;101051.72;5053522;28;20052;-71
2021/08/21 07:35:03;;;;;;;12.20;4.35;;;;;;;20.95;60.49;101052.09;5054669;28;20060;-71
2021/08/21 07:37:31;;;;;;;8.75;3.83;;;;;;;20.93;60.75;101054.47;5054531;28;20625;-70
2021/08/21 07:39:58;;;;;;;8.30;4.13;;;;;;;20.75;60.73;101050.53;5054589;28;20044;-71
2021/08/21 07:42:25;;;;;;;7.05;3.90;;;;;;;20.75;60.69;101042.13;5054389;28;20052;-71
2021/08/21 07:44:52;;;;;;;8.98;4.00;;;;;;;20.97;61.02;101046.13;5054672;28;20057;-71
2021/08/21 07:47:20;;;;;;;8.95;4.00;;;;;;;20.98;60.58;101047.72;5019791;28;20045;-71
2021/08/21 07:49:47;;;;;;;7.45;4.00;;;;;;;21.14;60.13;101042.81;5052832;28;20408;-71
2021/08/21 07:52:14;;;;;;;6.28;4.10;;;;;;;21.53;58.89;101041.38;5054262;28;20056;-71
2021/08/21 07:54:41;;;;;;;7.38;4.07;;;;;;;21.46;59.55;101037.69;5054341;28;20045;-73
2021/08/21 07:57:09;;;;;;;6.18;3.90;;;;;;;21.49;59.47;101042.53;5053985;28;20061;-72
2021/08/21 07:59:36;;;;;;;10.05;4.00;;;;;;;21.78;58.25;101027.72;5054282;28;20053;-71
2021/08/21 08:02:09;;;;;;;5.93;4.22;;;;;;;21.89;58.00;101039.91;5053345;28;20060;-71
2021/08/21 08:04:36;;;;;;;11.15;3.90;;;;;;;21.78;58.20;101044.53;5054266;28;20048;-70
2021/08/21 08:07:04;;;;;;;8.23;4.38;;;;;;;21.74;58.39;101043.69;5054370;28;20075;-71
2021/08/21 08:09:31;;;;;;;10.23;5.00;;;;;;;21.84;58.21;101041.06;5053797;28;20504;-71
2021/08/21 08:11:58;;;;;;;8.73;4.28;;;;;;;21.61;58.82;101047.91;5053966;28;20048;-70
2021/08/21 08:14:25;;;;;;;11.82;4.78;;;;;;;22.01;57.89;101036.84;5035500;28;20073;-71
2021/08/21 08:16:53;;;;;;;11.00;4.43;;;;;;;21.93;58.61;101040.75;5033956;28;20488;-71
2021/08/21 08:19:20;;;;;;;7.03;4.20;;;;;;;22.16;57.73;101027.38;5033973;28;20057;-70
2021/08/21 08:21:47;;;;;;;6.45;3.75;;;;;;;22.02;57.77;101039.25;5034251;28;20049;-71
2021/08/21 08:24:16;;;;;;;7.15;3.85;;;;;;;21.77;58.79;101032.50;5035030;28;20045;-71
2021/08/21 08:26:43;;;;;;;10.88;4.68;;;;;;;22.00;58.34;101032.41;5033464;28;20045;-71
2021/08/21 08:29:13;;;;;;;10.63;4.15;;;;;;;22.05;58.32;101026.47;5033248;28;20057;-72
2021/08/21 08:31:41;;;;;;;;;;;;;;;22.22;57.73;101020.25;5017948;28;20056;-72
2021/08/21 08:34:08;;;;;;;6.97;3.90;;;;;;;22.29;57.25;101021.13;5035283;28;20372;-72
2021/08/21 08:36:35;;;;;;;11.05;5.07;;;;;;;22.28;57.35;101025.13;5033502;28;20041;-72
2021/08/21 08:39:02;;;;;;;9.05;3.90;;;;;;;21.99;57.73;101030.78;5033894;28;20057;-72
2021/08/21 08:41:30;;;;;;;9.30;3.92;;;;;;;22.37;56.99;101021.22;5032973;28;20068;-71
2021/08/21 08:43:58;;;;;;;8.73;4.30;;;;;;;22.54;56.68;101029.00;5033996;28;20073;-72
2021/08/21 08:46:25;;;;;;;7.70;4.00;;;;;;;22.30;57.03;101028.34;5032649;28;20507;-71
2021/08/21 08:48:53;;;;;;;7.15;3.60;;;;;;;22.51;57.14;101029.78;5033682;28;20064;-71
2021/08/21 08:51:20;;;;;;;9.30;3.75;;;;;;;22.90;55.72;101033.75;5032287;28;20049;-70
2021/08/21 08:53:47;;;;;;;5.93;4.10;;;;;;;22.50;57.20;101033.75;5034452;28;20060;-72
2021/08/21 08:56:15;;;;;;;7.97;3.88;;;;;;;22.47;57.09;101028.91;5037740;28;20046;-72
2021/08/21 08:58:42;;;;;;;7.55;4.10;;;;;;;22.79;56.56;101030.84;5037419;28;20049;-71
2021/08/21 09:01:09;;;;;;;7.80;3.80;;;;;;;22.95;56.20;101033.38;5036389;28;20053;-72
2021/08/21 09:03:38;;;;;;;7.88;3.53;;;;;;;22.93;56.42;101039.41;5037470;28;20488;-72
2021/08/21 09:06:06;;;;;;;6.85;3.88;;;;;;;22.95;56.49;101037.00;5036231;28;20053;-70
2021/08/21 09:08:35;;;;;;;7.18;3.63;;;;;;;23.05;56.20;101041.09;5035863;28;20163;-72
2021/08/21 09:11:19;;;;;;;13.57;4.25;;;;;;;23.28;55.45;101034.09;5035523;28;20064;-73
2021/08/21 09:13:46;;;;;;;7.72;4.03;;;;;;;23.69;54.49;101036.72;5050681;28;20067;-71
2021/08/21 09:16:24;;;;;;;6.20;3.72;;;;;;;23.54;54.80;101032.25;5056043;28;20036;-70
2021/08/21 09:19:05;;;;;;;8.60;4.10;;;;;;;23.59;54.71;101037.50;5055980;28;20053;-71
2021/08/21 09:21:33;;;;;;;5.93;3.45;;;;;;;23.87;54.03;101037.63;5055802;28;20076;-71
2021/08/21 09:24:00;;;;;;;7.57;3.67;;;;;;;23.67;54.27;101039.13;5057271;28;20052;-71
2021/08/21 09:26:31;;;;;;;8.57;3.80;;;;;;;23.63;54.45;101041.09;5057105;28;20045;-70
2021/08/21 09:28:59;;;;;;;7.05;3.60;;;;;;;24.12;53.46;101041.34;5056964;28;20045;-72
2021/08/21 09:31:32;;;;;;;6.15;3.60;;;;;;;24.05;53.68;101039.31;5056758;28;20100;-73
2021/08/21 09:34:05;;;;;;;14.23;8.23;;;;;;;24.19;53.60;101035.75;5055448;28;20053;-63
2021/08/21 09:36:41;;;;;;;8.55;4.70;;;;;;;24.34;53.36;101024.13;5055180;28;20535;-64
2021/08/21 09:39:10;;;;;;;7.63;3.38;;;;;;;24.65;52.23;101018.94;5054707;28;20421;-63
2021/08/21 09:41:55;;;;;;;8.20;3.87;;;;;;;24.33;52.89;101016.06;5056750;28;20057;-64
2021/08/21 09:44:26;;;;;;;8.10;3.65;;;;;;;24.39;52.86;101015.28;5056396;28;20064;-64
2021/08/21 09:47:23;;;;;;;7.18;4.38;;;;;;;24.69;52.18;101016.94;5056638;28;20516;-64
2021/08/21 09:49:52;;;;;;;7.40;3.97;;;;;;;24.81;52.20;101016.56;5056136;28;20116;-64
2021/08/21 09:52:19;;;;;;;7.25;3.50;;;;;;;24.55;52.25;101000.03;5056224;28;20065;-65
2021/08/21 09:55:07;;;;;;;9.43;4.03;;;;;;;24.71;52.15;101006.91;5038638;28;20057;-64
2021/08/21 09:57:35;;;;;;;8.38;3.70;;;;;;;24.64;52.29;101000.41;5055849;28;20053;-64
2021/08/21 10:00:04;;;;;;;7.88;3.95;;;;;;;24.71;52.64;101006.09;5038454;28;20052;-64
2021/08/21 10:02:42;;;;;;;6.55;3.42;;;;;;;25.15;51.58;101003.66;5055087;28;20041;-63
2021/08/21 10:05:09;;;;;;;7.93;3.60;;;;;;;25.47;50.91;101008.03;5053847;28;20067;-64
2021/08/21 10:07:43;;;;;;;9.00;4.10;;;;;;;25.53;50.90;101002.78;5037299;28;20053;-63
2021/08/21 10:10:12;;;;;;;11.00;3.65;;;;;;;25.45;50.44;101009.66;5037071;28;20048;-64
2021/08/21 10:12:43;;;;;;;6.20;3.77;;;;;;;25.37;50.49;100999.59;5051742;28;20511;-63
2021/08/21 10:15:12;;;;;;;7.45;4.20;;;;;;;25.62;50.39;101011.63;5034430;28;20049;-65
2021/08/21 10:17:43;;;;;;;11.18;4.10;;;;;;;25.96;49.37;101009.84;5035744;28;20041;-62
2021/08/21 10:20:12;;;;;;;6.78;3.40;;;;;;;26.37;48.51;101004.41;5034000;28;20054;-62
2021/08/21 10:22:40;;;;;;;8.88;3.88;;;;;;;26.11;49.01;101011.44;5036068;28;20049;-64
2021/08/21 10:25:10;;;;;;;12.73;4.40;;;;;;;26.19;49.10;101004.53;5034252;28;20053;-64
2021/08/21 10:27:54;;;;;;;9.65;4.65;;;;;;;26.21;49.06;101004.09;5035252;28;20053;-62
2021/08/21 10:30:26;;;;;;;11.05;4.40;;;;;;;26.33;48.70;101006.44;5034074;28;20049;-64
2021/08/21 10:32:58;;;;;;;6.03;4.18;;;;;;;26.19;49.57;100998.06;5035490;28;20080;-63
2021/08/21 10:35:51;;;;;;;7.15;4.07;;;;;;;26.40;49.07;100992.28;5035273;28;20179;-63
2021/08/21 10:38:31;;;;;;;7.35;3.85;;;;;;;26.81;48.07;100990.41;5033963;28;20045;-63
2021/08/21 10:41:00;;;;;;;7.18;3.55;;;;;;;26.79;47.80;100997.66;5033158;28;20057;-64
2021/08/21 10:43:47;;;;;;;7.25;3.42;;;;;;;26.72;47.92;100986.44;5035553;28;20049;-63
2021/08/21 10:46:29;;;;;;;8.60;4.13;;;;;;;26.43;48.50;100995.09;5035319;28;20412;-63
2021/08/21 10:49:03;;;;;;;6.72;3.65;;;;;;;26.67;48.18;100987.69;5033450;28;20517;-71
2021/08/21 10:51:36;;;;;;;6.15;3.70;;;;;;;26.54;47.86;100993.00;5035287;28;20060;-70
2021/08/21 10:54:19;;;;;;;7.10;3.53;;;;;;;26.83;46.55;100993.63;5034254;28;20129;-71
2021/08/21 10:56:46;;;;;;;7.03;3.30;;;;;;;26.64;47.16;100988.47;5036789;28;20066;-70
2021/08/21 10:59:39;;;;;;;5.50;3.40;;;;;;;26.84;47.12;100995.19;5034373;28;20054;-70
2021/08/21 11:02:25;;;;;;;8.77;3.75;;;;;;;26.67;47.38;100991.28;5035221;28;20050;-71
2021/08/21 11:04:53;;;;;;;5.28;3.70;;;;;;;26.87;46.77;100988.72;5034937;28;20060;-71
2021/08/21 11:07:40;;;;;;;6.95;4.25;;;;;;;26.94;46.48;100988.66;5033833;28;20045;-71
2021/08/21 11:10:13;;;;;;;7.22;3.97;;;;;;;27.13;46.34;100990.09;5035148;28;20064;-71
2021/08/21 11:12:43;;;;;;;5.25;3.25;;;;;;;27.09;46.87;100989.31;5038882;28;20049;-71
2021/08/21 11:15:15;;;;;;;7.88;3.28;;;;;;;26.79;47.87;100992.81;5055089;28;20049;-71
2021/08/21 11:17:43;;;;;;;6.55;3.30;;;;;;;27.04;46.97;100987.72;5052710;28;20053;-70
2021/08/21 11:20:28;;;;;;;6.22;3.67;;;;;;;27.21;46.93;100981.13;5054207;28;20049;-71
2021/08/21 11:23:07;;;;;;;6.80;3.53;;;;;;;27.61;46.24;100987.97;5054429;28;20063;-71
2021/08/21 11:25:38;;;;;;;8.90;3.77;;;;;;;27.50;46.45;100987.28;5054581;28;20075;-71
2021/08/21 11:28:07;;;;;;;10.18;4.10;;;;;;;27.81;45.75;100985.31;5054282;28;20759;-71
2021/08/21 11:30:34;;;;;;;7.13;4.00;;;;;;;27.52;46.62;100993.31;5054259;28;20049;-63
2021/08/21 11:33:08;;;;;;;12.00;3.95;;;;;;;27.26;47.07;100982.69;5036627;28;20057;-71
2021/08/21 11:35:51;;;;;;;7.57;3.83;;;;;;;27.72;46.08;100989.44;5054290;28;20411;-64
2021/08/21 11:38:40;;;;;;;7.88;3.67;;;;;;;27.72;46.09;100992.25;5054090;28;20059;-63
2021/08/21 11:41:12;;;;;;;6.55;3.63;;;;;;;27.47;46.84;100994.59;5053706;28;20045;-63